Weather at Flugplatz Hausen am Albis

Public forecast

Using degrees Celsius for public forecast. Weather courtesy of forecast.io.

Closest aviation weather report (METAR) to Flugplatz Hausen am Albis

Closest report is Dübendorf Air Base, 11.0 nm (20.4 km) NNE. Retrieved 2021/01/15 19:20 UTC (27 minutes ago):

LSMD 151920Z AUTO 31002KT 3400NDV FZFG NCD M06/M07 Q1026 RMK

Closest aviation forecast (TAF) to Flugplatz Hausen am Albis

Closest forecast is Dübendorf Air Base, 11.0 nm (20.4 km) NNE. Retrieved 2021/01/15 17:00 UTC (3 hours ago):

TAF LSMD 151625Z 1517/1623 VRB03KT 9999 OVC017 PROB40 TEMPO 1520/1612 4000 BR OVC011